Aeroporto :
LOGIN :

Iscrizione | Disclaimer

   EN    FR    IT 

 










Sommario :    VFR   VFR Marginale   IFR   IFR Intensivo   IFR Molto Intensivo
Visibilità : 
Base nubi : 
>= 8 km
>= 3000ft
5 / 8 km
1000 / 3000 ft
1500m / 5 km
500 / 1000 ft
800 / 1500m
200 / 500 ft
< 800m
< 200 ft
Simboli :   Temporali  Nebbia  Neve Forte  Precipitazioni Forti  Vento > 20 kt
SIGMETs :   Varie  Temporali  Ghiacco  Turbolenza  Onda orograficha  Ceneri Vulcaniche







- Altitudine del aeroporto : 465 ft
- Codice IATA : LEJ


EDDP - Leipzig Halle

ULTIMO METAR :
  • 200020Z 20011KT CAVOK 20/12 Q1018 NOSIG

METARs OBSOLETI :
  • 192350Z 19009KT CAVOK 21/12 Q1018 NOSIG
  • 192320Z 18008KT 160V220 CAVOK 21/12 Q1018 NOSIG
  • 192250Z 18008KT CAVOK 20/12 Q1018 NOSIG
  • 192220Z 18008KT CAVOK 22/12 Q1018 NOSIG
  • 192150Z 20008KT CAVOK 22/12 Q1018 NOSIG

TAF TAF EDDP
Valido dal 20 a 00 ore il 21 a 00 ore UTC


192300Z 2000/2024 21008KT CAVOK
Nessun NOTAM noto per questo aeroporto.



MetMap, La meteo Aeronautica in un colpo d'occhio ! - Copyright ORBIFLY Dicembre 2007 - Disclaimer

ORBIFLY MET'MAP TEAM :

Programmazione e sviluppo : Alexandra Zaïnal
Concezione e sviluppo : Baudouin d'Aumeries
Co-Programmazione e sviluppo : Marc-Olivier Méhu
Supporto tecnico e logistico : Manuel Goepfert
Aiuto per la traduzione : Arnaldo La Scala

Contatto : metmap@orbifly.com




FONTI E CREDITI :

   NOAA